createdAt,value
2018-11-06T07:03:30.151Z,91.70
2018-11-06T07:05:58.741Z,92.10
2018-11-06T07:08:27.279Z,91.90
2018-11-06T07:10:56.065Z,91.90
2018-11-06T07:13:25.309Z,91.80
2018-11-06T07:15:53.971Z,91.80
2018-11-06T07:18:22.532Z,91.80
2018-11-06T07:20:51.069Z,91.70
2018-11-06T07:23:19.539Z,91.60
2018-11-06T07:25:47.967Z,91.60
2018-11-06T07:28:16.408Z,91.60
2018-11-06T07:30:45.761Z,91.40
2018-11-06T07:33:14.189Z,91.50
2018-11-06T07:35:42.765Z,91.40
2018-11-06T07:38:11.083Z,91.30
2018-11-06T07:40:39.703Z,91.30
2018-11-06T07:43:08.848Z,91.20
2018-11-06T07:45:37.282Z,91.30
2018-11-06T07:48:05.704Z,91.30
2018-11-06T07:50:34.257Z,91.20
2018-11-06T07:53:03.313Z,91.20
2018-11-06T07:55:31.813Z,91.10
2018-11-06T07:58:00.801Z,91.10
2018-11-06T08:00:29.284Z,91.10
2018-11-06T08:02:57.780Z,91.20
2018-11-06T08:05:26.294Z,91.10
2018-11-06T08:07:54.736Z,91.10
2018-11-06T08:10:23.400Z,91.00
2018-11-06T08:12:53.109Z,91.00
2018-11-06T08:15:21.642Z,90.80
2018-11-06T08:17:50.272Z,90.90
2018-11-06T08:20:19.273Z,90.90
2018-11-06T08:22:47.727Z,90.80
2018-11-06T08:25:16.783Z,90.70
2018-11-06T08:27:46.439Z,90.80
2018-11-06T08:30:14.855Z,90.60
2018-11-06T08:32:43.752Z,90.70
2018-11-06T08:35:13.617Z,90.70
2018-11-06T08:37:42.303Z,90.70
2018-11-06T08:40:12.149Z,90.60
2018-11-06T08:42:40.638Z,90.80
2018-11-06T08:45:10.610Z,90.60
2018-11-06T08:47:39.646Z,90.40
2018-11-06T08:50:09.238Z,90.40
2018-11-06T08:52:37.722Z,90.40
2018-11-06T08:55:07.481Z,90.20
2018-11-06T08:57:36.051Z,90.30
2018-11-06T09:00:05.956Z,90.20
2018-11-06T09:02:34.487Z,90.30
2018-11-06T09:05:02.890Z,90.10
2018-11-06T09:07:31.320Z,90.00
2018-11-06T09:09:59.764Z,90.00
2018-11-06T09:12:28.197Z,90.00
2018-11-06T09:14:56.660Z,90.00
2018-11-06T09:17:25.056Z,89.80
2018-11-06T09:19:54.684Z,89.70
2018-11-06T09:22:23.176Z,89.80
2018-11-06T09:24:51.603Z,89.90
2018-11-06T09:27:20.048Z,89.70
2018-11-06T09:29:48.488Z,89.10
2018-11-06T09:32:16.932Z,89.50
2018-11-06T09:34:45.370Z,88.90
2018-11-06T09:37:15.228Z,89.00
2018-11-06T09:39:43.761Z,89.00
2018-11-06T09:42:13.304Z,89.00
2018-11-06T09:44:41.748Z,88.50
2018-11-06T09:47:11.284Z,88.50
2018-11-06T09:49:39.779Z,88.50
2018-11-06T09:52:08.300Z,88.40
2018-11-06T09:54:36.809Z,88.40
2018-11-06T09:57:05.972Z,88.00
2018-11-06T09:59:34.503Z,88.40
2018-11-06T10:02:04.295Z,88.00
2018-11-06T10:04:32.711Z,88.50
2018-11-06T10:07:01.401Z,87.90
2018-11-06T10:09:29.647Z,88.00
2018-11-06T10:11:58.146Z,87.90
2018-11-06T10:14:26.599Z,87.60
2018-11-06T10:16:55.031Z,87.70
2018-11-06T10:19:23.567Z,87.30
2018-11-06T10:21:52.584Z,87.20
2018-11-06T10:24:22.420Z,87.10
2018-11-06T10:26:50.892Z,87.00
2018-11-06T10:29:20.349Z,87.20
2018-11-06T10:31:49.523Z,86.80
2018-11-06T10:34:17.964Z,86.60
2018-11-06T10:36:46.427Z,86.40
2018-11-06T10:39:15.007Z,86.50
2018-11-06T10:41:43.570Z,86.40
2018-11-06T10:44:12.016Z,86.60
2018-11-06T10:46:40.475Z,86.30
2018-11-06T10:49:10.948Z,85.90
2018-11-06T10:51:39.518Z,86.10
2018-11-06T10:54:08.500Z,86.10
2018-11-06T10:56:36.923Z,85.40
2018-11-06T10:59:05.347Z,84.70
2018-11-06T11:01:39.181Z,84.80
2018-11-06T11:04:12.809Z,84.80
2018-11-06T11:06:41.344Z,83.90
2018-11-06T11:09:11.857Z,84.20
2018-11-06T11:11:40.368Z,83.20
2018-11-06T11:14:08.804Z,83.30
2018-11-06T11:16:37.212Z,82.90
2018-11-06T11:19:06.776Z,81.00
2018-11-06T11:21:35.287Z,81.30
2018-11-06T11:24:03.700Z,79.60
2018-11-06T11:26:32.135Z,79.90
2018-11-06T11:29:00.620Z,80.30
2018-11-06T11:31:29.042Z,79.20
2018-11-06T11:33:57.507Z,80.30
2018-11-06T11:36:26.096Z,80.80
2018-11-06T11:38:55.369Z,81.20
2018-11-06T11:41:23.790Z,79.20
2018-11-06T11:43:52.226Z,77.40
2018-11-06T11:46:20.715Z,77.50
2018-11-06T11:48:49.894Z,76.00
2018-11-06T11:51:18.330Z,75.90
2018-11-06T11:53:46.765Z,76.80
2018-11-06T11:56:15.185Z,75.80
2018-11-06T11:58:47.398Z,75.00
2018-11-06T12:01:15.821Z,75.40
2018-11-06T12:03:44.258Z,74.70
2018-11-06T12:06:12.728Z,75.50
2018-11-06T12:08:41.154Z,75.10
2018-11-06T12:11:09.748Z,75.50
2018-11-06T12:13:38.177Z,76.90
2018-11-06T12:16:06.596Z,74.70
2018-11-06T12:18:35.230Z,74.90
2018-11-06T12:21:03.690Z,73.90
2018-11-06T12:23:32.155Z,74.40
2018-11-06T12:26:00.641Z,73.20
2018-11-06T12:28:29.068Z,73.60
2018-11-06T12:30:58.219Z,73.40
2018-11-06T12:33:26.660Z,72.70
2018-11-06T12:35:55.082Z,72.30
2018-11-06T12:38:23.515Z,71.90
2018-11-06T12:40:52.574Z,71.80
2018-11-06T12:43:21.222Z,71.60
2018-11-06T12:45:49.641Z,71.50
2018-11-06T12:48:18.053Z,71.00
2018-11-06T12:50:47.880Z,70.90
2018-11-06T12:53:16.384Z,71.00
2018-11-06T12:55:44.945Z,70.50
2018-11-06T12:58:13.387Z,70.30
2018-11-06T13:00:42.096Z,70.30
2018-11-06T13:03:10.663Z,70.30
2018-11-06T13:05:39.703Z,70.40
2018-11-06T13:08:09.351Z,70.20
2018-11-06T13:10:37.777Z,69.90
2018-11-06T13:13:06.683Z,70.10
2018-11-06T13:15:35.586Z,69.90
2018-11-06T13:18:04.019Z,70.60
2018-11-06T13:20:32.432Z,69.90
2018-11-06T13:23:00.873Z,70.70
2018-11-06T13:25:29.368Z,70.00
2018-11-06T13:27:59.306Z,70.00
2018-11-06T13:30:27.863Z,69.90
2018-11-06T13:32:56.287Z,69.80
2018-11-06T13:35:25.711Z,69.30
2018-11-06T13:37:54.909Z,69.80
2018-11-06T13:40:24.810Z,69.20
2018-11-06T13:42:55.503Z,69.20
2018-11-06T13:45:25.042Z,68.90
2018-11-06T13:47:54.527Z,68.90
2018-11-06T13:50:23.027Z,68.60
2018-11-06T13:52:51.468Z,68.20
2018-11-06T13:55:19.874Z,68.10
2018-11-06T13:57:48.333Z,68.00
2018-11-06T14:00:19.185Z,67.50
2018-11-06T14:02:47.703Z,67.80
2018-11-06T14:05:17.030Z,67.40
2018-11-06T14:07:45.541Z,66.50
2018-11-06T14:10:14.488Z,66.90
2018-11-06T14:12:43.717Z,67.30
2018-11-06T14:15:12.145Z,66.80
2018-11-06T14:17:40.579Z,67.30
2018-11-06T14:20:11.410Z,67.30
2018-11-06T14:22:39.937Z,67.30
2018-11-06T14:25:08.427Z,67.20
2018-11-06T14:27:36.978Z,67.20
2018-11-06T14:30:10.036Z,68.00
2018-11-06T14:32:39.806Z,68.30
2018-11-06T14:35:09.442Z,67.00
2018-11-06T14:37:38.502Z,68.00
2018-11-06T14:40:08.098Z,68.60
2018-11-06T14:42:37.185Z,68.30
2018-11-06T14:45:06.868Z,69.50
2018-11-06T14:47:35.343Z,69.00
2018-11-06T14:50:04.146Z,69.70
2018-11-06T14:52:33.187Z,70.00
2018-11-06T14:55:01.704Z,70.30
2018-11-06T14:57:31.075Z,69.50
2018-11-06T14:59:59.512Z,68.80
2018-11-06T15:02:28.640Z,69.70
2018-11-06T15:04:57.043Z,68.90
2018-11-06T15:07:26.240Z,69.60
2018-11-06T15:09:55.217Z,69.50
2018-11-06T15:12:24.818Z,70.70
2018-11-06T15:14:53.287Z,70.20
2018-11-06T15:17:21.800Z,70.50
2018-11-06T15:19:50.286Z,71.60
2018-11-06T15:22:18.766Z,69.90
2018-11-06T15:24:47.205Z,71.90
2018-11-06T15:27:15.754Z,70.30
2018-11-06T15:29:44.176Z,69.30
2018-11-06T15:32:12.647Z,69.50
2018-11-06T15:34:41.840Z,69.60
2018-11-06T15:37:10.298Z,68.80
2018-11-06T15:39:38.724Z,69.20
2018-11-06T15:42:07.289Z,69.40
2018-11-06T15:44:35.673Z,69.90
2018-11-06T15:47:04.104Z,72.00
2018-11-06T15:49:40.194Z,71.00
2018-11-06T15:52:08.632Z,72.00
2018-11-06T15:54:37.765Z,69.90
2018-11-06T15:57:06.171Z,69.60
2018-11-06T15:59:34.718Z,69.10
2018-11-06T16:02:03.156Z,71.10
2018-11-06T16:04:31.626Z,70.10
2018-11-06T16:07:00.100Z,70.30
2018-11-06T16:09:28.558Z,70.50
2018-11-06T16:11:57.005Z,70.40
2018-11-06T16:14:26.899Z,70.70
2018-11-06T16:16:55.361Z,71.00
2018-11-06T16:19:23.854Z,71.80
2018-11-06T16:21:52.281Z,71.00
2018-11-06T16:24:22.424Z,73.30
2018-11-06T16:26:51.542Z,71.10
2018-11-06T16:29:19.964Z,71.20
2018-11-06T16:31:48.416Z,71.20
2018-11-06T16:34:16.977Z,71.70
2018-11-06T16:36:45.504Z,72.40
2018-11-06T16:39:13.936Z,71.70
2018-11-06T16:41:43.802Z,72.10
2018-11-06T16:44:13.281Z,72.20
2018-11-06T16:46:41.759Z,72.20
2018-11-06T16:49:10.695Z,72.30
2018-11-06T16:51:39.129Z,73.00
2018-11-06T16:54:07.582Z,73.40
2018-11-06T16:56:37.263Z,73.00
2018-11-06T16:59:05.677Z,72.80
2018-11-06T17:01:34.151Z,73.30
2018-11-06T17:04:02.671Z,73.50
2018-11-06T17:06:35.237Z,73.40
2018-11-06T17:09:04.981Z,74.20
2018-11-06T17:11:33.503Z,73.30
2018-11-06T17:14:02.023Z,73.40
2018-11-06T17:16:30.513Z,73.30
2018-11-06T17:18:59.104Z,73.80
2018-11-06T17:21:28.371Z,74.20
2018-11-06T17:23:57.667Z,74.00
2018-11-06T17:26:26.135Z,73.80
2018-11-06T17:28:54.639Z,73.80
2018-11-06T17:31:23.113Z,74.20
2018-11-06T17:33:51.551Z,74.20
2018-11-06T17:36:20.251Z,74.70
2018-11-06T17:38:48.682Z,74.50
2018-11-06T17:41:17.131Z,74.80
2018-11-06T17:43:45.572Z,74.40
2018-11-06T17:46:14.049Z,74.10
2018-11-06T17:48:43.041Z,74.60
2018-11-06T17:51:11.489Z,74.70
2018-11-06T17:53:40.150Z,74.30
2018-11-06T17:56:08.636Z,74.80
2018-11-06T17:58:37.390Z,75.20
2018-11-06T18:01:06.835Z,75.10
2018-11-06T18:03:35.300Z,75.20
2018-11-06T18:06:03.781Z,75.70
2018-11-06T18:08:32.261Z,76.20
2018-11-06T18:11:00.737Z,76.40
2018-11-06T18:13:29.177Z,76.60
2018-11-06T18:15:57.669Z,77.80
2018-11-06T18:18:26.127Z,77.10
2018-11-06T18:20:55.108Z,77.40
2018-11-06T18:23:23.637Z,77.40
2018-11-06T18:25:52.322Z,77.60
2018-11-06T18:28:20.527Z,77.80
2018-11-06T18:30:49.035Z,78.00
2018-11-06T18:33:17.545Z,78.80
2018-11-06T18:35:46.103Z,77.30
2018-11-06T18:38:14.684Z,80.70
2018-11-06T18:40:43.066Z,76.30
2018-11-06T18:43:12.733Z,79.10
2018-11-06T18:45:41.351Z,76.70
2018-11-06T18:48:10.334Z,75.70
2018-11-06T18:50:39.956Z,75.70
2018-11-06T18:53:08.389Z,76.90
2018-11-06T18:55:37.032Z,75.70
2018-11-06T18:58:05.863Z,75.70
2018-11-06T19:00:34.256Z,75.90
2018-11-06T19:03:02.738Z,75.30
2018-11-06T19:05:32.000Z,75.20
2018-11-06T19:08:00.582Z,75.60
2018-11-06T19:10:35.620Z,76.50
2018-11-06T19:13:04.068Z,76.90
2018-11-06T19:15:32.531Z,75.80
2018-11-06T19:18:00.966Z,78.40
2018-11-06T19:20:29.540Z,80.50
2018-11-06T19:22:57.968Z,74.00
2018-11-06T19:25:26.410Z,74.20
2018-11-06T19:27:54.921Z,73.10
2018-11-06T19:30:24.474Z,73.50
2018-11-06T19:32:52.880Z,73.20
2018-11-06T19:35:21.357Z,77.20
2018-11-06T19:37:49.861Z,75.10
2018-11-06T19:40:18.699Z,75.70
2018-11-06T19:42:47.786Z,72.80
2018-11-06T19:45:16.254Z,78.60
2018-11-06T19:47:44.748Z,76.10
2018-11-06T19:50:14.620Z,75.10
2018-11-06T19:52:43.004Z,80.30
2018-11-06T19:55:12.788Z,71.30
2018-11-06T19:57:41.448Z,80.60
2018-11-06T20:00:15.224Z,71.00
2018-11-06T20:02:44.906Z,68.40
2018-11-06T20:05:14.424Z,72.20
2018-11-06T20:07:43.799Z,69.50
2018-11-06T20:10:15.863Z,74.20
2018-11-06T20:12:45.358Z,70.00
2018-11-06T20:15:15.327Z,70.80
2018-11-06T20:17:44.318Z,71.00
2018-11-06T20:20:15.540Z,71.50
2018-11-06T20:22:44.221Z,71.60
2018-11-06T20:25:13.197Z,71.20
2018-11-06T20:27:41.910Z,74.50
2018-11-06T20:30:13.335Z,71.70
2018-11-06T20:32:42.031Z,72.10
2018-11-06T20:35:12.225Z,70.80
2018-11-06T20:37:40.700Z,72.60
2018-11-06T20:40:11.385Z,76.40
2018-11-06T20:42:40.320Z,74.00
2018-11-06T20:45:09.903Z,72.20
2018-11-06T20:47:38.399Z,71.60
2018-11-06T20:50:10.115Z,79.20
2018-11-06T20:52:38.559Z,79.70
2018-11-06T20:55:08.556Z,73.80
2018-11-06T20:57:37.049Z,71.10
2018-11-06T21:00:07.946Z,73.50
2018-11-06T21:02:36.880Z,71.30
2018-11-06T21:05:05.460Z,75.70
2018-11-06T21:07:34.413Z,71.90
2018-11-06T21:10:04.171Z,81.10
2018-11-06T21:12:32.891Z,80.00
2018-11-06T21:15:01.342Z,76.20
2018-11-06T21:17:30.439Z,81.20
2018-11-06T21:19:59.634Z,72.90
2018-11-06T21:22:28.216Z,73.30
2018-11-06T21:24:58.501Z,73.70
2018-11-06T21:27:33.749Z,73.00
2018-11-06T21:30:02.727Z,74.00
2018-11-06T21:32:31.243Z,75.00
2018-11-06T21:34:59.936Z,74.90
2018-11-06T21:37:28.976Z,73.50
2018-11-06T21:39:58.161Z,77.60
2018-11-06T21:42:26.883Z,74.00
2018-11-06T21:44:55.507Z,74.10
2018-11-06T21:47:23.992Z,74.00
2018-11-06T21:49:52.686Z,75.00
2018-11-06T21:52:21.126Z,75.30
2018-11-06T21:54:50.242Z,75.70
2018-11-06T21:57:19.311Z,76.00
2018-11-06T21:59:47.837Z,76.60
2018-11-06T22:02:20.018Z,77.10
2018-11-06T22:04:48.452Z,77.30
2018-11-06T22:07:17.389Z,77.60
2018-11-06T22:09:47.180Z,77.70
2018-11-06T22:12:16.195Z,77.90
2018-11-06T22:14:44.765Z,78.00
2018-11-06T22:17:13.443Z,77.40
2018-11-06T22:19:43.230Z,77.20
2018-11-06T22:22:13.547Z,77.90
2018-11-06T22:24:42.028Z,77.10
2018-11-06T22:27:10.649Z,77.30
2018-11-06T22:29:39.184Z,77.30
2018-11-06T22:32:08.089Z,77.50
2018-11-06T22:34:38.019Z,76.90
2018-11-06T22:37:06.512Z,77.60
2018-11-06T22:39:34.981Z,76.60
2018-11-06T22:42:03.408Z,76.90
2018-11-06T22:44:32.232Z,77.10
2018-11-06T22:47:00.774Z,77.60
2018-11-06T22:49:29.375Z,78.40
2018-11-06T22:51:59.321Z,77.70
2018-11-06T22:54:27.788Z,78.90
2018-11-06T22:56:57.168Z,78.40
2018-11-06T22:59:25.630Z,78.20
2018-11-06T23:01:57.190Z,78.00
2018-11-06T23:07:00.497Z,78.90
2018-11-06T23:13:04.396Z,78.70
2018-11-06T23:19:09.226Z,79.50
2018-11-06T23:25:13.390Z,78.80
2018-11-06T23:31:17.021Z,79.20
2018-11-06T23:37:20.528Z,79.60
2018-11-06T23:43:23.996Z,79.70
2018-11-06T23:49:27.448Z,80.60
2018-11-06T23:55:31.035Z,80.50
